sensor_id;sensor_type;location;lat;lon;timestamp;temperature;humidity
63931;DHT22;50111;48.114;-2.066;2023-02-28T20:05:15;3.50;99.90
63931;DHT22;50111;48.114;-2.066;2023-02-28T20:07:40;3.30;99.90
63931;DHT22;50111;48.114;-2.066;2023-02-28T20:12:32;3.50;99.90
63931;DHT22;50111;48.114;-2.066;2023-02-28T20:14:57;3.30;99.90
63931;DHT22;50111;48.114;-2.066;2023-02-28T20:17:24;3.30;99.90
63931;DHT22;50111;48.114;-2.066;2023-02-28T20:19:50;3.30;99.90
63931;DHT22;50111;48.114;-2.066;2023-02-28T20:22:16;3.30;99.90
63931;DHT22;50111;48.114;-2.066;2023-02-28T20:24:41;3.10;99.90
63931;DHT22;50111;48.114;-2.066;2023-02-28T20:27:07;3.10;99.90
63931;DHT22;50111;48.114;-2.066;2023-02-28T20:29:33;3.40;99.90
63931;DHT22;50111;48.114;-2.066;2023-02-28T20:31:59;3.50;99.90
63931;DHT22;50111;48.114;-2.066;2023-02-28T20:34:24;3.40;99.90
63931;DHT22;50111;48.114;-2.066;2023-02-28T20:36:50;3.40;99.90
63931;DHT22;50111;48.114;-2.066;2023-02-28T20:39:15;3.30;99.90
63931;DHT22;50111;48.114;-2.066;2023-02-28T20:41:41;3.20;99.90
63931;DHT22;50111;48.114;-2.066;2023-02-28T20:44:08;3.30;99.90
63931;DHT22;50111;48.114;-2.066;2023-02-28T20:46:35;3.00;99.90
63931;DHT22;50111;48.114;-2.066;2023-02-28T20:49:01;3.20;99.90
63931;DHT22;50111;48.114;-2.066;2023-02-28T20:51:26;3.00;99.90
63931;DHT22;50111;48.114;-2.066;2023-02-28T20:53:52;3.20;99.90
63931;DHT22;50111;48.114;-2.066;2023-02-28T20:56:18;3.00;99.90
63931;DHT22;50111;48.114;-2.066;2023-02-28T20:58:46;2.70;99.90
63931;DHT22;50111;48.114;-2.066;2023-02-28T21:01:13;2.80;99.90
63931;DHT22;50111;48.114;-2.066;2023-02-28T21:03:45;2.70;99.90
63931;DHT22;50111;48.114;-2.066;2023-02-28T21:06:12;2.80;99.90
63931;DHT22;50111;48.114;-2.066;2023-02-28T21:08:38;2.80;99.90
63931;DHT22;50111;48.114;-2.066;2023-02-28T21:11:07;2.70;99.90
63931;DHT22;50111;48.114;-2.066;2023-02-28T21:13:33;2.70;99.90
63931;DHT22;50111;48.114;-2.066;2023-02-28T21:16:02;2.70;99.90
63931;DHT22;50111;48.114;-2.066;2023-02-28T21:18:28;2.50;99.90
63931;DHT22;50111;48.114;-2.066;2023-02-28T21:20:59;2.40;99.90
63931;DHT22;50111;48.114;-2.066;2023-02-28T21:23:24;2.40;99.90
63931;DHT22;50111;48.114;-2.066;2023-02-28T21:25:50;2.60;99.90
63931;DHT22;50111;48.114;-2.066;2023-02-28T21:28:16;2.60;99.90
63931;DHT22;50111;48.114;-2.066;2023-02-28T21:30:41;2.60;99.90
63931;DHT22;50111;48.114;-2.066;2023-02-28T21:33:07;2.70;99.90
63931;DHT22;50111;48.114;-2.066;2023-02-28T21:35:32;2.60;99.90
63931;DHT22;50111;48.114;-2.066;2023-02-28T21:37:58;2.50;99.90
63931;DHT22;50111;48.114;-2.066;2023-02-28T21:40:23;2.50;99.90
63931;DHT22;50111;48.114;-2.066;2023-02-28T21:42:49;2.60;99.90
63931;DHT22;50111;48.114;-2.066;2023-02-28T21:45:14;2.70;99.90
63931;DHT22;50111;48.114;-2.066;2023-02-28T21:47:40;2.70;99.90
63931;DHT22;50111;48.114;-2.066;2023-02-28T21:50:05;2.70;99.90
63931;DHT22;50111;48.114;-2.066;2023-02-28T21:52:31;2.50;99.90
63931;DHT22;50111;48.114;-2.066;2023-02-28T21:54:57;2.60;99.90
63931;DHT22;50111;48.114;-2.066;2023-02-28T21:57:22;2.40;99.90
63931;DHT22;50111;48.114;-2.066;2023-02-28T21:59:48;2.30;99.90
63931;DHT22;50111;48.114;-2.066;2023-02-28T22:02:13;2.20;99.90
63931;DHT22;50111;48.114;-2.066;2023-02-28T22:04:39;2.00;99.90
63931;DHT22;50111;48.114;-2.066;2023-02-28T22:07:04;1.90;99.90
63931;DHT22;50111;48.114;-2.066;2023-02-28T22:09:30;1.90;99.90
63931;DHT22;50111;48.114;-2.066;2023-02-28T22:11:56;1.80;99.90
63931;DHT22;50111;48.114;-2.066;2023-02-28T22:14:21;1.90;99.90
63931;DHT22;50111;48.114;-2.066;2023-02-28T22:16:47;1.90;99.90
63931;DHT22;50111;48.114;-2.066;2023-02-28T22:19:13;1.70;99.90
63931;DHT22;50111;48.114;-2.066;2023-02-28T22:21:38;1.70;99.90
63931;DHT22;50111;48.114;-2.066;2023-02-28T22:24:06;1.60;99.90
63931;DHT22;50111;48.114;-2.066;2023-02-28T22:26:31;1.60;99.90
63931;DHT22;50111;48.114;-2.066;2023-02-28T22:28:57;1.50;99.90
63931;DHT22;50111;48.114;-2.066;2023-02-28T22:31:24;1.60;99.90
63931;DHT22;50111;48.114;-2.066;2023-02-28T22:33:56;1.50;99.90
63931;DHT22;50111;48.114;-2.066;2023-02-28T22:36:22;1.40;99.90
63931;DHT22;50111;48.114;-2.066;2023-02-28T22:38:48;1.40;99.90
63931;DHT22;50111;48.114;-2.066;2023-02-28T22:41:15;1.30;99.90
63931;DHT22;50111;48.114;-2.066;2023-02-28T22:43:41;1.30;99.90
63931;DHT22;50111;48.114;-2.066;2023-02-28T22:46:07;1.30;99.90
63931;DHT22;50111;48.114;-2.066;2023-02-28T22:48:34;1.40;99.90
63931;DHT22;50111;48.114;-2.066;2023-02-28T22:51:12;1.30;99.90
63931;DHT22;50111;48.114;-2.066;2023-02-28T22:53:42;1.30;99.90
63931;DHT22;50111;48.114;-2.066;2023-02-28T22:56:08;1.50;99.90
63931;DHT22;50111;48.114;-2.066;2023-02-28T22:58:34;1.50;99.90
63931;DHT22;50111;48.114;-2.066;2023-02-28T23:01:13;1.40;99.90
63931;DHT22;50111;48.114;-2.066;2023-02-28T23:03:39;1.50;99.90
63931;DHT22;50111;48.114;-2.066;2023-02-28T23:06:17;1.50;99.90
63931;DHT22;50111;48.114;-2.066;2023-02-28T23:08:42;1.30;99.90
63931;DHT22;50111;48.114;-2.066;2023-02-28T23:11:08;1.30;99.90
63931;DHT22;50111;48.114;-2.066;2023-02-28T23:13:34;1.30;99.90
63931;DHT22;50111;48.114;-2.066;2023-02-28T23:16:02;1.30;99.90
63931;DHT22;50111;48.114;-2.066;2023-02-28T23:18:28;1.30;99.90
63931;DHT22;50111;48.114;-2.066;2023-02-28T23:20:54;1.20;99.90
63931;DHT22;50111;48.114;-2.066;2023-02-28T23:23:20;1.20;99.90
63931;DHT22;50111;48.114;-2.066;2023-02-28T23:25:46;1.10;99.90
63931;DHT22;50111;48.114;-2.066;2023-02-28T23:28:11;1.00;99.90
63931;DHT22;50111;48.114;-2.066;2023-02-28T23:30:37;1.10;99.90
63931;DHT22;50111;48.114;-2.066;2023-02-28T23:33:03;1.00;99.90
63931;DHT22;50111;48.114;-2.066;2023-02-28T23:35:29;1.00;99.90
63931;DHT22;50111;48.114;-2.066;2023-02-28T23:37:55;0.90;99.90
63931;DHT22;50111;48.114;-2.066;2023-02-28T23:40:21;1.00;99.90
63931;DHT22;50111;48.114;-2.066;2023-02-28T23:42:47;0.90;99.90
63931;DHT22;50111;48.114;-2.066;2023-02-28T23:45:12;0.90;99.90
63931;DHT22;50111;48.114;-2.066;2023-02-28T23:47:38;0.80;99.90
63931;DHT22;50111;48.114;-2.066;2023-02-28T23:50:04;0.80;99.90
63931;DHT22;50111;48.114;-2.066;2023-02-28T23:52:29;0.70;99.90
63931;DHT22;50111;48.114;-2.066;2023-02-28T23:54:55;0.60;99.90
63931;DHT22;50111;48.114;-2.066;2023-02-28T23:57:21;0.70;99.90
63931;DHT22;50111;48.114;-2.066;2023-02-28T23:59:46;0.60;99.90
